Time;durP1;ratioP1;P1;durP2;ratioP2;P2;SDS_P1;SDS_P2;PMS_P1;PMS_P2;Temp;Humidity;BMP_temperature;BMP_pressure;BME280_temperature;BME280_humidity;BME280_pressure;Samples;Min_cycle;Max_cycle;Signal;HPM_P1;HPM_P2
2020/12/06 00:01:02;;;;;;;30.92;22.08;;;4.00;95.60;;;;;;5016132;28;20048;-79
2020/12/06 00:03:28;;;;;;;31.50;22.13;;;3.80;95.40;;;;;;5032645;28;20017;-78
2020/12/06 00:05:54;;;;;;;29.80;20.67;;;3.10;99.90;;;;;;5032327;28;20099;-78
2020/12/06 00:08:19;;;;;;;30.17;21.42;;;3.50;99.90;;;;;;5033457;28;20096;-79
2020/12/06 00:10:45;;;;;;;28.98;20.17;;;3.20;95.30;;;;;;5032702;28;20121;-78
2020/12/06 00:13:11;;;;;;;26.92;19.35;;;4.10;95.50;;;;;;5015801;28;20359;-78
2020/12/06 00:15:36;;;;;;;31.08;21.70;;;3.80;95.50;;;;;;5032189;28;20021;-78
2020/12/06 00:18:02;;;;;;;29.80;20.88;;;3.00;99.90;;;;;;5032182;28;20030;-78
2020/12/06 00:20:28;;;;;;;35.55;22.48;;;4.30;99.90;;;;;;5015686;28;20491;-79
2020/12/06 00:22:53;;;;;;;33.85;23.42;;;3.20;95.20;;;;;;5031863;28;20112;-78
2020/12/06 00:25:19;;;;;;;45.60;27.63;;;3.90;95.40;;;;;;5032183;28;20447;-78
2020/12/06 00:27:45;;;;;;;45.92;27.38;;;3.50;95.40;;;;;;5031876;28;20098;-78
2020/12/06 00:30:10;;;;;;;44.03;28.23;;;3.50;99.90;;;;;;5031966;28;20468;-79
2020/12/06 00:32:37;;;;;;;65.65;26.58;;;4.10;99.90;;;;;;4999264;28;20036;-78
2020/12/06 00:35:04;;;;;;;50.50;26.77;;;3.70;95.50;;;;;;5015596;28;20029;-78
2020/12/06 00:37:30;;;;;;;44.08;26.85;;;3.20;95.40;;;;;;5032879;28;20052;-79
2020/12/06 00:39:55;;;;;;;40.08;25.55;;;3.30;95.60;;;;;;5031580;28;20057;-78
2020/12/06 00:42:22;;;;;;;39.33;24.85;;;;;;;;;;5032748;28;20079;-78
2020/12/06 00:44:47;;;;;;;35.13;24.48;;;3.30;99.00;;;;;;5031770;28;20021;-79
2020/12/06 00:47:13;;;;;;;40.40;26.50;;;4.00;95.40;;;;;;5032842;28;20545;-78
2020/12/06 00:49:39;;;;;;;39.60;24.75;;;3.40;95.10;;;;;;5031856;28;20104;-79
2020/12/06 00:52:04;;;;;;;39.83;26.35;;;4.10;95.30;;;;;;5014619;28;20029;-78
2020/12/06 00:54:30;;;;;;;43.50;25.45;;;3.20;95.30;;;;;;5015367;28;20014;-78
2020/12/06 00:56:55;;;;;;;41.70;25.02;;;3.60;95.30;;;;;;5011363;28;20546;-78
2020/12/06 00:59:22;;;;;;;45.55;27.23;;;3.00;99.90;;;;;;5013901;28;20033;-78
2020/12/06 01:01:47;;;;;;;42.90;27.00;;;3.70;95.60;;;;;;5031937;28;20018;-78
2020/12/06 01:04:13;;;;;;;45.65;27.63;;;3.30;99.90;;;;;;4998367;28;20493;-78
2020/12/06 01:06:38;;;;;;;49.03;28.45;;;3.30;99.90;;;;;;5032324;28;20025;-77
2020/12/06 01:09:04;;;;;;;42.92;26.52;;;3.60;95.80;;;;;;5032486;28;20036;-78
2020/12/06 01:11:30;;;;;;;44.92;28.63;;;3.80;95.80;;;;;;5014833;28;20424;-78
2020/12/06 01:13:55;;;;;;;44.90;24.63;;;3.60;95.90;;;;;;5031507;28;20444;-79
2020/12/06 01:16:21;;;;;;;45.72;27.23;;;3.50;99.90;;;;;;5031181;28;20072;-79
2020/12/06 01:18:46;;;;;;;49.33;27.85;;;3.70;95.80;;;;;;5015072;28;20022;-79
2020/12/06 01:21:12;;;;;;;43.67;26.35;;;3.20;95.70;;;;;;5014612;28;20460;-79
2020/12/06 01:23:38;;;;;;;43.00;25.20;;;3.20;95.80;;;;;;5014847;28;20048;-78
2020/12/06 01:26:04;;;;;;;46.83;25.90;;;3.70;96.00;;;;;;5032728;28;20026;-79
2020/12/06 01:28:29;;;;;;;43.50;25.83;;;3.20;99.90;;;;;;5014314;28;20046;-78
2020/12/06 01:30:55;;;;;;;37.50;23.08;;;3.90;96.20;;;;;;5030978;28;20040;-78
2020/12/06 01:33:20;;;;;;;35.60;23.65;;;3.20;95.80;;;;;;5032496;28;20029;-79
2020/12/06 01:35:46;;;;;;;38.20;24.33;;;3.30;95.80;;;;;;5032185;28;20152;-79
2020/12/06 01:38:11;;;;;;;39.92;24.20;;;3.30;95.70;;;;;;5032179;28;20380;-78
2020/12/06 01:40:40;;;;;;;32.05;21.35;;;3.10;99.90;;;;;;5014637;28;20037;-78
2020/12/06 01:43:07;;;;;;;31.52;20.67;;;3.40;95.60;;;;;;5031225;28;20040;-78
2020/12/06 01:45:33;;;;;;;27.95;19.65;;;4.20;95.60;;;;;;4998279;28;20026;-78
2020/12/06 01:47:59;;;;;;;26.33;18.10;;;3.80;95.30;;;;;;5031074;28;20385;-79
2020/12/06 01:50:24;;;;;;;23.95;16.92;;;4.20;95.30;;;;;;5030792;28;20033;-79
2020/12/06 01:52:50;;;;;;;21.15;15.77;;;3.20;99.90;;;;;;5031060;28;20076;-78
2020/12/06 01:55:15;;;;;;;23.30;16.25;;;4.10;99.90;;;;;;5014604;28;20025;-78
2020/12/06 01:57:41;;;;;;;19.25;15.00;;;4.00;94.90;;;;;;5014489;28;20018;-78
2020/12/06 02:00:07;;;;;;;22.88;16.08;;;3.80;94.90;;;;;;5030900;28;20026;-77
2020/12/06 02:02:36;;;;;;;22.23;15.95;;;3.00;99.90;;;;;;5031047;28;20034;-77
2020/12/06 02:05:04;;;;;;;22.65;16.15;;;2.90;99.90;;;;;;5001655;28;20071;-78
2020/12/06 02:07:33;;;;;;;21.08;15.80;;;3.10;99.90;;;;;;5002027;28;20068;-78
2020/12/06 02:09:59;;;;;;;23.48;16.25;;;3.40;94.80;;;;;;5018158;28;20037;-78
2020/12/06 02:12:25;;;;;;;23.13;15.85;;;3.20;94.90;;;;;;5035856;28;20029;-78
2020/12/06 02:14:50;;;;;;;22.02;15.20;;;2.90;99.90;;;;;;5017942;28;20030;-77
2020/12/06 02:17:16;;;;;;;19.90;14.27;;;3.90;95.00;;;;;;5035565;28;20056;-77
2020/12/06 02:19:42;;;;;;;19.05;13.93;;;3.20;94.70;;;;;;5034270;28;20028;-77
2020/12/06 02:22:08;;;;;;;18.25;13.05;;;3.00;94.70;;;;;;5018012;28;20028;-78
2020/12/06 02:24:33;;;;;;;19.60;14.02;;;3.10;94.70;;;;;;5017781;28;20029;-78
2020/12/06 02:26:59;;;;;;;18.35;12.85;;;3.10;99.90;;;;;;5017750;28;20124;-78
2020/12/06 02:29:24;;;;;;;17.45;13.20;;;3.20;94.70;;;;;;5017678;28;20111;-78
2020/12/06 02:31:50;;;;;;;18.40;13.50;;;3.90;94.80;;;;;;5033973;28;20029;-78
2020/12/06 02:34:16;;;;;;;18.98;13.43;;;3.60;94.80;;;;;;5034096;28;20028;-78
2020/12/06 02:36:41;;;;;;;18.10;13.02;;;3.00;99.90;;;;;;5017521;28;20026;-78
2020/12/06 02:39:08;;;;;;;17.00;12.05;;;3.00;99.90;;;;;;5034124;28;20022;-78
2020/12/06 02:41:44;;;;;;;19.83;13.35;;;3.60;94.80;;;;;;5034167;28;20109;-79
2020/12/06 02:44:13;;;;;;;16.95;12.70;;;3.20;99.90;;;;;;5017813;28;20029;-78
2020/12/06 02:46:39;;;;;;;19.20;13.35;;;2.80;99.90;;;;;;5017782;28;20401;-78
2020/12/06 02:49:05;;;;;;;18.27;12.27;;;4.20;95.00;;;;;;5017610;28;20064;-78
2020/12/06 02:51:30;;;;;;;16.73;13.27;;;4.30;94.90;;;;;;5017508;28;20049;-79
2020/12/06 02:53:56;;;;;;;17.48;12.38;;;2.80;99.90;;;;;;5035190;28;20440;-78
2020/12/06 02:56:22;;;;;;;15.57;12.63;;;4.00;99.90;;;;;;5017324;28;20021;-77
2020/12/06 02:58:47;;;;;;;17.30;13.13;;;3.20;94.70;;;;;;5035021;28;20025;-78
2020/12/06 03:01:13;;;;;;;18.42;13.52;;;;;;;;;;5017322;28;20037;-78
2020/12/06 03:03:39;;;;;;;18.02;13.35;;;;;;;;;;5033620;28;20104;-78
2020/12/06 03:06:05;;;;;;;17.45;13.35;;;2.90;99.90;;;;;;5017116;28;20063;-78
2020/12/06 03:08:31;;;;;;;17.60;12.85;;;3.20;99.90;;;;;;5017061;28;20034;-78
2020/12/06 03:10:56;;;;;;;16.85;12.45;;;3.30;94.70;;;;;;5034574;28;20068;-77
2020/12/06 03:13:22;;;;;;;14.60;10.70;;;3.30;94.80;;;;;;5033406;28;20029;-78
2020/12/06 03:15:48;;;;;;;14.05;10.20;;;3.70;94.70;;;;;;5033526;28;20053;-78
2020/12/06 03:18:13;;;;;;;11.35;8.93;;;3.30;94.40;;;;;;5016952;28;20025;-78
2020/12/06 03:20:39;;;;;;;12.95;9.85;;;3.20;99.60;;;;;;5033363;28;20444;-78
2020/12/06 03:23:05;;;;;;;13.63;10.05;;;3.20;94.40;;;;;;5034474;28;20055;-78
2020/12/06 03:25:30;;;;;;;11.40;9.80;;;3.60;94.60;;;;;;5034313;28;20048;-77
2020/12/06 03:27:56;;;;;;;13.23;9.75;;;2.80;99.90;;;;;;5016607;28;20046;-78
2020/12/06 03:30:21;;;;;;;12.38;9.65;;;4.70;95.10;;;;;;5034122;28;20025;-77
2020/12/06 03:32:47;;;;;;;12.55;9.68;;;2.60;94.40;;;;;;5033406;28;20029;-78
2020/12/06 03:35:12;;;;;;;12.88;9.75;;;3.60;94.70;;;;;;5016757;28;20033;-78
2020/12/06 03:37:38;;;;;;;11.05;9.52;;;3.40;94.50;;;;;;5016649;28;20106;-78
2020/12/06 03:40:04;;;;;;;13.63;10.60;;;2.50;99.90;;;;;;5032981;28;20029;-77
2020/12/06 03:42:29;;;;;;;18.83;13.23;;;2.80;94.30;;;;;;5016505;28;20028;-78
2020/12/06 03:44:55;;;;;;;19.50;14.30;;;4.00;94.80;;;;;;5032663;28;20026;-77
2020/12/06 03:47:21;;;;;;;18.48;14.02;;;3.40;94.90;;;;;;5033883;28;20033;-78
2020/12/06 03:49:46;;;;;;;16.50;11.75;;;3.50;94.60;;;;;;5016302;28;20026;-78
2020/12/06 03:52:12;;;;;;;14.05;11.07;;;2.80;99.90;;;;;;5016136;28;20064;-78
2020/12/06 03:54:37;;;;;;;13.82;10.30;;;2.70;94.40;;;;;;5033753;28;20390;-78
2020/12/06 03:57:03;;;;;;;13.98;9.82;;;3.50;94.60;;;;;;4999909;28;20091;-78
2020/12/06 03:59:29;;;;;;;12.23;9.00;;;4.00;94.70;;;;;;5032614;28;20337;-78
2020/12/06 04:01:54;;;;;;;12.45;8.80;;;3.80;94.80;;;;;;4999734;28;20104;-77
2020/12/06 04:04:20;;;;;;;10.65;8.40;;;2.80;99.90;;;;;;5033839;28;20026;-78
2020/12/06 04:06:45;;;;;;;10.93;8.65;;;3.10;94.40;;;;;;5015963;28;20026;-78
2020/12/06 04:09:11;;;;;;;11.25;8.60;;;3.00;94.30;;;;;;5032256;28;20109;-78
2020/12/06 04:11:37;;;;;;;9.50;8.00;;;2.90;94.10;;;;;;5015854;28;20103;-78
2020/12/06 04:14:02;;;;;;;9.90;7.85;;;3.00;94.00;;;;;;5032110;28;20033;-78
2020/12/06 04:16:28;;;;;;;10.85;8.63;;;2.50;99.90;;;;;;5032667;28;20112;-78
2020/12/06 04:18:54;;;;;;;10.65;7.95;;;4.00;94.20;;;;;;5032192;28;20025;-78
2020/12/06 04:21:19;;;;;;;10.60;7.63;;;3.10;93.80;;;;;;5033459;28;20052;-78
2020/12/06 04:23:45;;;;;;;9.05;7.22;;;3.10;93.70;;;;;;5032268;28;20017;-78
2020/12/06 04:26:10;;;;;;;9.65;7.82;;;3.10;93.40;;;;;;5015143;28;20025;-78
2020/12/06 04:28:36;;;;;;;9.57;7.88;;;2.40;99.50;;;;;;5031568;28;20053;-78
2020/12/06 04:31:01;;;;;;;9.15;7.57;;;2.50;93.30;;;;;;5032080;28;20030;-77
2020/12/06 04:33:27;;;;;;;9.48;7.93;;;2.60;93.60;;;;;;5015734;28;20032;-77
2020/12/06 04:35:53;;;;;;;9.68;7.60;;;3.50;93.80;;;;;;5032978;28;20033;-77
2020/12/06 04:38:18;;;;;;;10.30;7.53;;;3.00;93.90;;;;;;5015388;28;20021;-77
2020/12/06 04:40:44;;;;;;;9.20;7.43;;;2.20;99.90;;;;;;5015158;28;20025;-78
2020/12/06 04:43:10;;;;;;;10.13;8.02;;;3.40;94.40;;;;;;5031983;28;20017;-77
2020/12/06 04:45:36;;;;;;;9.38;7.75;;;;;;;;;;5031575;28;20124;-78
2020/12/06 04:48:05;;;;;;;10.98;8.35;;;2.30;93.80;;;;;;5033161;28;20017;-78
2020/12/06 04:50:31;;;;;;;9.52;7.45;;;4.00;94.30;;;;;;5015304;28;20379;-78
2020/12/06 04:52:58;;;;;;;10.25;7.85;;;2.10;98.60;;;;;;5032979;28;20021;-79
2020/12/06 04:55:25;;;;;;;9.05;7.38;;;2.60;99.20;;;;;;5015339;28;20099;-78
2020/12/06 04:57:53;;;;;;;8.80;6.90;;;2.80;94.00;;;;;;4999093;28;20025;-78
2020/12/06 05:00:18;;;;;;;9.57;7.63;;;2.90;94.10;;;;;;5031710;28;20021;-78
2020/12/06 05:02:44;;;;;;;9.52;7.70;;;2.80;94.30;;;;;;4998621;28;20448;-78
2020/12/06 05:05:10;;;;;;;10.18;7.72;;;2.40;99.90;;;;;;5015402;28;20030;-78
2020/12/06 05:07:35;;;;;;;9.00;7.32;;;2.70;99.90;;;;;;4998776;28;20104;-78
2020/12/06 05:10:02;;;;;;;9.65;7.50;;;2.70;94.70;;;;;;5031643;28;20026;-78
2020/12/06 05:12:28;;;;;;;10.27;8.02;;;3.30;94.90;;;;;;5015075;28;20036;-78
2020/12/06 05:14:53;;;;;;;10.55;7.97;;;1.80;99.90;;;;;;5032508;28;20021;-78
2020/12/06 05:17:19;;;;;;;11.40;8.30;;;2.00;94.60;;;;;;5015176;28;20406;-78
2020/12/06 05:19:46;;;;;;;10.80;8.32;;;3.70;95.20;;;;;;5031414;28;20029;-78
2020/12/06 05:22:12;;;;;;;9.50;7.65;;;3.00;94.90;;;;;;5031339;28;20021;-78
2020/12/06 05:24:37;;;;;;;12.43;8.63;;;2.90;95.00;;;;;;5031094;28;20021;-78
2020/12/06 05:27:03;;;;;;;8.55;7.07;;;;;;;;;;5030613;28;20041;-78
2020/12/06 05:29:29;;;;;;;9.75;7.68;;;2.00;99.90;;;;;;5032547;28;20474;-78
2020/12/06 05:31:56;;;;;;;9.73;7.40;;;2.90;95.10;;;;;;5014961;28;20041;-78
2020/12/06 05:34:21;;;;;;;9.43;7.55;;;2.20;94.90;;;;;;4998714;28;20386;-78
2020/12/06 05:36:47;;;;;;;9.73;8.13;;;2.10;95.00;;;;;;5015141;28;20025;-78
2020/12/06 05:39:12;;;;;;;9.13;7.68;;;2.00;99.90;;;;;;5035640;28;20026;-77
2020/12/06 05:41:38;;;;;;;8.95;7.03;;;3.60;95.20;;;;;;5035399;28;20041;-78
2020/12/06 05:44:05;;;;;;;8.70;7.50;;;2.40;94.90;;;;;;5035450;28;20467;-78
2020/12/06 05:46:33;;;;;;;9.10;7.93;;;2.70;94.70;;;;;;5019005;28;20032;-78
2020/12/06 05:48:58;;;;;;;8.35;7.28;;;2.40;94.60;;;;;;5019011;28;20030;-78
2020/12/06 05:51:24;;;;;;;9.93;7.35;;;;;;;;;;5035052;28;20021;-78
2020/12/06 05:53:50;;;;;;;9.40;7.32;;;2.20;98.30;;;;;;5036273;28;20013;-78
2020/12/06 05:56:19;;;;;;;8.32;6.68;;;2.30;94.50;;;;;;5002057;28;20337;-78
2020/12/06 05:58:46;;;;;;;8.82;7.45;;;3.50;94.80;;;;;;5018752;28;20116;-79
2020/12/06 06:01:12;;;;;;;7.63;6.63;;;3.60;94.60;;;;;;5018837;28;20025;-78
2020/12/06 06:03:46;;;;;;;7.47;6.60;;;2.20;97.60;;;;;;5002319;28;20067;-78
2020/12/06 06:06:35;;;;;;;8.75;6.95;;;2.20;94.30;;;;;;5019182;28;20049;-78
2020/12/06 06:09:03;;;;;;;8.07;6.80;;;3.30;94.50;;;;;;5034892;28;20026;-79
2020/12/06 06:11:29;;;;;;;8.80;6.88;;;1.90;99.90;;;;;;5036134;28;20037;-78
2020/12/06 06:14:05;;;;;;;9.88;8.38;;;2.20;94.20;;;;;;5018445;28;20027;-78
2020/12/06 06:16:32;;;;;;;13.75;10.98;;;2.10;99.90;;;;;;5034734;28;20018;-79
2020/12/06 06:18:59;;;;;;;12.43;9.10;;;2.00;99.40;;;;;;5034825;28;20029;-78
2020/12/06 06:21:32;;;;;;;10.30;7.97;;;2.70;99.90;;;;;;5018431;28;20021;-78
2020/12/06 06:24:08;;;;;;;11.88;7.68;;;2.10;94.40;;;;;;5035807;28;20018;-78
2020/12/06 06:26:35;;;;;;;12.82;9.80;;;2.00;94.20;;;;;;5019228;28;20053;-78
2020/12/06 06:29:00;;;;;;;11.05;7.32;;;1.80;99.90;;;;;;5017755;28;20574;-78
2020/12/06 06:31:27;;;;;;;8.98;7.43;;;3.80;99.90;;;;;;5017671;28;20104;-78
2020/12/06 06:33:53;;;;;;;11.88;9.13;;;2.80;94.70;;;;;;5017874;28;20079;-78
2020/12/06 06:36:21;;;;;;;9.45;8.43;;;3.10;94.80;;;;;;5017905;28;20017;-77
2020/12/06 06:38:47;;;;;;;11.95;10.05;;;2.40;94.60;;;;;;5018229;28;20121;-78
2020/12/06 06:41:13;;;;;;;14.93;9.27;;;2.10;99.90;;;;;;5018063;28;20133;-78
2020/12/06 06:43:40;;;;;;;13.10;10.95;;;3.70;99.90;;;;;;5018066;28;20355;-78
2020/12/06 06:46:16;;;;;;;24.00;16.95;;;2.10;99.90;;;;;;5017676;28;20022;-78
2020/12/06 06:48:45;;;;;;;20.50;14.57;;;1.90;94.40;;;;;;5033371;28;20353;-78
2020/12/06 06:51:19;;;;;;;26.02;16.45;;;3.30;95.30;;;;;;5034125;28;20032;-78
2020/12/06 06:53:45;;;;;;;35.75;22.33;;;;;;;;;;5018383;28;20379;-78
2020/12/06 06:56:10;;;;;;;17.05;13.00;;;1.90;98.60;;;;;;5035180;28;20014;-78
2020/12/06 06:58:36;;;;;;;16.77;13.05;;;2.10;95.00;;;;;;5017280;28;20021;-78
2020/12/06 07:01:21;;;;;;;12.52;10.98;;;3.20;95.10;;;;;;5017241;28;20100;-78
2020/12/06 07:03:53;;;;;;;10.02;8.77;;;2.50;94.90;;;;;;5033932;28;20028;-78
2020/12/06 07:06:50;;;;;;;10.52;8.55;;;2.10;99.90;;;;;;5034373;28;20061;-78
2020/12/06 07:19:14;;;;;;;8.73;7.82;;;;;;;;;;4942792;29;20031;-80
2020/12/06 07:21:41;;;;;;;7.63;6.65;;;2.20;99.90;;;;;;4993068;28;20045;-80
2020/12/06 07:24:07;;;;;;;16.85;11.20;;;3.60;95.60;;;;;;5026535;28;20463;-79
2020/12/06 07:26:32;;;;;;;9.70;7.60;;;2.00;95.00;;;;;;5018912;28;20082;-79
2020/12/06 07:28:58;;;;;;;13.23;8.60;;;2.10;95.10;;;;;;5002510;28;20045;-82
2020/12/06 07:31:24;;;;;;;8.60;6.90;;;2.10;99.90;;;;;;5018960;28;20045;-84
2020/12/06 07:33:50;;;;;;;10.13;7.85;;;3.40;99.90;;;;;;5002563;28;20029;-79
2020/12/06 07:36:16;;;;;;;10.10;8.25;;;3.60;95.40;;;;;;5035344;28;20051;-82
2020/12/06 07:38:42;;;;;;;12.98;9.40;;;2.40;95.10;;;;;;5035333;28;20083;-80
2020/12/06 07:41:07;;;;;;;11.38;9.07;;;3.70;95.50;;;;;;5016604;28;20044;-84
2020/12/06 07:43:33;;;;;;;9.90;8.35;;;;;;;;;;5000269;28;20025;-84
2020/12/06 07:46:20;;;;;;;10.63;8.15;;;2.00;98.80;;;;;;5033048;28;20426;-79
2020/12/06 07:48:46;;;;;;;8.75;7.30;;;2.10;95.00;;;;;;5033036;28;20138;-81
2020/12/06 07:51:12;;;;;;;14.73;10.27;;;3.50;95.20;;;;;;4999938;28;20622;-80
2020/12/06 07:53:50;;;;;;;11.07;7.78;;;2.70;95.10;;;;;;5016366;28;20025;-82
2020/12/06 07:56:18;;;;;;;12.50;8.70;;;2.20;99.90;;;;;;5000546;28;20115;-81
2020/12/06 07:58:48;;;;;;;8.65;7.68;;;3.10;95.00;;;;;;5016721;28;20078;-80
2020/12/06 08:01:14;;;;;;;9.13;7.53;;;2.30;94.70;;;;;;5015486;28;20120;-81
2020/12/06 08:03:40;;;;;;;10.73;8.20;;;2.50;94.80;;;;;;5000099;28;20124;-80
2020/12/06 08:06:06;;;;;;;10.57;8.82;;;3.40;94.90;;;;;;5032783;28;20049;-79
2020/12/06 08:08:34;;;;;;;16.70;9.13;;;2.70;99.70;;;;;;5016220;28;20056;-78
2020/12/06 08:11:00;;;;;;;17.23;10.05;;;3.10;99.90;;;;;;5016522;28;20466;-82
2020/12/06 08:13:25;;;;;;;15.48;9.82;;;2.90;95.00;;;;;;5032884;28;20405;-79
2020/12/06 08:15:51;;;;;;;13.50;8.80;;;2.40;94.90;;;;;;5032354;28;20033;-78
2020/12/06 08:18:20;;;;;;;11.48;8.35;;;2.30;99.90;;;;;;5033492;28;20029;-77
2020/12/06 08:20:55;;;;;;;12.27;8.88;;;3.30;94.80;;;;;;5032569;28;20029;-76
2020/12/06 08:23:33;;;;;;;9.30;8.20;;;2.50;94.80;;;;;;5033447;28;20041;-77
2020/12/06 08:25:59;;;;;;;9.80;8.00;;;2.30;94.60;;;;;;5016247;28;20475;-78
2020/12/06 08:28:25;;;;;;;9.77;8.48;;;3.90;95.10;;;;;;5015211;28;20046;-76
2020/12/06 08:30:51;;;;;;;10.27;8.13;;;;;;;;;;5031861;28;20063;-76
2020/12/06 08:33:24;;;;;;;10.85;8.55;;;2.30;98.30;;;;;;5033228;28;20029;-75
2020/12/06 08:35:52;;;;;;;33.03;12.48;;;2.50;95.00;;;;;;5032352;28;20025;-77
2020/12/06 08:38:24;;;;;;;15.45;8.90;;;3.80;96.20;;;;;;5032181;28;20017;-75
2020/12/06 08:41:10;;;;;;;10.30;8.50;;;2.90;94.10;;;;;;5032399;28;20363;-74
2020/12/06 08:43:53;;;;;;;10.15;7.55;;;2.90;99.90;;;;;;5032781;28;20483;-75
2020/12/06 08:46:23;;;;;;;17.48;13.30;;;3.40;93.70;;;;;;5032874;28;20074;-74
2020/12/06 08:48:50;;;;;;;15.60;12.38;;;3.20;93.80;;;;;;5032889;28;20065;-75
2020/12/06 08:51:31;;;;;;;14.38;10.45;;;3.20;93.70;;;;;;5031611;28;20022;-78
2020/12/06 08:53:59;;;;;;;13.80;10.25;;;2.80;93.60;;;;;;5032179;28;20032;-76
2020/12/06 08:56:29;;;;;;;18.92;12.60;;;3.10;99.90;;;;;;5031993;28;20017;-75
2020/12/06 08:58:55;;;;;;;14.52;11.23;;;2.90;93.50;;;;;;5032918;28;20048;-76
2020/12/06 09:01:20;;;;;;;14.95;10.75;;;3.40;93.50;;;;;;5015140;28;20061;-76
2020/12/06 09:03:46;;;;;;;11.20;8.50;;;3.30;93.70;;;;;;5030288;28;20049;-77
2020/12/06 09:06:16;;;;;;;9.38;6.85;;;3.80;93.80;;;;;;5032871;28;20444;-77
2020/12/06 09:08:42;;;;;;;8.18;7.13;;;3.00;99.90;;;;;;5032648;28;20021;-74
2020/12/06 09:11:13;;;;;;;19.63;17.77;;;2.80;99.90;;;;;;5032691;28;20470;-77
2020/12/06 09:13:38;;;;;;;9.30;8.38;;;3.80;93.90;;;;;;5031479;28;20022;-76
2020/12/06 09:16:04;;;;;;;8.73;7.65;;;3.10;93.90;;;;;;5030633;28;20048;-76
2020/12/06 09:18:29;;;;;;;8.95;7.53;;;3.10;93.90;;;;;;5032718;28;20443;-75
2020/12/06 09:20:55;;;;;;;11.35;9.43;;;3.30;99.90;;;;;;5030117;28;20032;-77
2020/12/06 09:23:21;;;;;;;9.73;8.52;;;3.20;99.30;;;;;;5032475;28;20036;-76
2020/12/06 09:25:46;;;;;;;12.40;11.10;;;3.00;94.20;;;;;;5032517;28;20032;-77
2020/12/06 09:28:12;;;;;;;11.40;9.43;;;3.10;94.00;;;;;;5031271;28;20132;-76
2020/12/06 09:30:37;;;;;;;12.57;11.18;;;3.70;94.10;;;;;;5014677;28;20029;-75
2020/12/06 09:33:03;;;;;;;11.63;9.90;;;3.40;99.90;;;;;;5032711;28;20028;-76
2020/12/06 09:35:28;;;;;;;9.77;8.32;;;3.80;99.30;;;;;;5032590;28;20022;-75
2020/12/06 09:37:54;;;;;;;112.43;81.53;;;3.20;93.50;;;;;;5031248;28;20455;-77
2020/12/06 09:40:20;;;;;;;28.23;22.05;;;3.50;93.40;;;;;;5031357;28;20021;-76
2020/12/06 09:42:45;;;;;;;10.15;8.68;;;3.30;93.20;;;;;;5032625;28;20475;-77
2020/12/06 09:45:11;;;;;;;8.82;7.05;;;;;;;;;;5014608;28;20029;-76
2020/12/06 09:47:40;;;;;;;9.75;7.20;;;3.40;97.40;;;;;;5032454;28;20029;-76
2020/12/06 09:50:06;;;;;;;8.25;6.90;;;3.50;92.90;;;;;;5031487;28;20030;-77
2020/12/06 09:52:31;;;;;;;7.55;6.45;;;3.60;92.90;;;;;;5014703;28;20037;-77
2020/12/06 09:54:57;;;;;;;9.02;8.13;;;3.70;92.90;;;;;;5016530;28;20029;-77
2020/12/06 09:57:25;;;;;;;9.00;7.63;;;3.70;99.90;;;;;;5032536;28;20112;-77
2020/12/06 09:59:51;;;;;;;8.63;7.72;;;4.50;97.80;;;;;;5032579;28;20022;-78
2020/12/06 10:02:16;;;;;;;24.85;14.63;;;4.00;91.80;;;;;;5030769;28;20078;-79
2020/12/06 10:04:42;;;;;;;8.88;7.35;;;4.20;95.30;;;;;;5030798;28;20367;-78
2020/12/06 10:07:07;;;;;;;15.07;12.48;;;4.30;96.00;;;;;;5030433;28;20030;-77
2020/12/06 10:09:33;;;;;;;83.90;50.00;;;;;;;;;;5012688;28;20100;-77
2020/12/06 10:11:59;;;;;;;39.20;24.90;;;4.50;95.20;;;;;;5013685;28;20037;-77
2020/12/06 10:14:24;;;;;;;13.55;10.48;;;4.70;91.80;;;;;;5028983;28;20033;-78
2020/12/06 10:16:50;;;;;;;7.55;6.80;;;4.80;91.60;;;;;;5030459;28;20032;-79
2020/12/06 10:19:16;;;;;;;5.75;5.15;;;4.70;91.60;;;;;;4992590;28;20116;-77
2020/12/06 10:21:41;;;;;;;6.53;5.57;;;4.80;92.00;;;;;;5029927;28;20471;-76
2020/12/06 10:24:07;;;;;;;10.80;9.70;;;4.80;91.00;;;;;;5013981;28;20033;-77
2020/12/06 10:26:32;;;;;;;7.50;6.68;;;4.80;90.80;;;;;;5029012;28;20038;-79
2020/12/06 10:28:59;;;;;;;8.80;7.97;;;;;;;;;;5019321;28;20050;-79
2020/12/06 10:31:25;;;;;;;7.55;6.38;;;5.00;94.90;;;;;;5016591;28;20037;-79
2020/12/06 10:33:51;;;;;;;8.10;7.22;;;4.90;91.30;;;;;;5033315;28;20034;-78
2020/12/06 10:36:16;;;;;;;8.40;7.50;;;5.30;91.30;;;;;;5035254;28;20029;-78
2020/12/06 10:38:42;;;;;;;9.38;8.32;;;5.10;91.40;;;;;;5032618;28;20064;-78
2020/12/06 10:41:08;;;;;;;9.93;8.93;;;;;;;;;;5016930;28;20053;-77
2020/12/06 10:43:33;;;;;;;11.43;8.15;;;4.80;94.40;;;;;;5030969;28;20025;-78
2020/12/06 10:45:59;;;;;;;8.40;7.40;;;5.20;91.80;;;;;;5028508;28;20025;-79
2020/12/06 10:48:25;;;;;;;7.85;6.53;;;5.10;91.40;;;;;;5034493;28;20088;-81
2020/12/06 10:50:52;;;;;;;8.00;7.20;;;5.30;91.30;;;;;;5014019;28;20542;-80
2020/12/06 10:53:18;;;;;;;8.13;7.32;;;5.30;99.90;;;;;;5031180;28;20115;-81
2020/12/06 10:55:44;;;;;;;8.00;7.15;;;5.80;95.40;;;;;;5016962;28;20013;-80
2020/12/06 10:58:09;;;;;;;7.45;6.50;;;5.00;91.10;;;;;;5033134;28;20025;-81
2020/12/06 11:00:35;;;;;;;7.32;6.47;;;5.00;90.60;;;;;;5032580;28;20436;-81
2020/12/06 11:03:00;;;;;;;6.75;6.03;;;5.20;90.60;;;;;;5032479;28;20036;-79
2020/12/06 11:05:26;;;;;;;11.25;7.43;;;5.10;99.90;;;;;;5033802;28;20057;-79
2020/12/06 11:07:52;;;;;;;7.22;6.53;;;5.60;95.50;;;;;;5037003;28;20112;-78
2020/12/06 11:10:17;;;;;;;6.18;5.57;;;5.10;90.90;;;;;;5037447;28;20018;-76
2020/12/06 11:12:43;;;;;;;6.47;5.75;;;5.10;90.70;;;;;;5033231;28;20041;-77
2020/12/06 11:15:09;;;;;;;6.95;6.05;;;5.10;99.90;;;;;;5032180;28;20036;-78
2020/12/06 11:17:40;;;;;;;7.07;6.07;;;5.00;90.70;;;;;;5017059;28;20025;-80
2020/12/06 11:20:06;;;;;;;5.55;5.05;;;5.10;95.10;;;;;;5016173;28;20048;-79
2020/12/06 11:22:32;;;;;;;5.10;4.60;;;5.80;91.20;;;;;;5031228;28;20025;-78
2020/12/06 11:25:01;;;;;;;4.78;4.38;;;5.00;90.80;;;;;;5032784;28;20345;-79
2020/12/06 11:27:27;;;;;;;5.72;4.38;;;5.00;90.90;;;;;;5031768;28;20141;-79
2020/12/06 11:29:53;;;;;;;5.57;4.70;;;5.10;99.90;;;;;;5016768;28;20450;-79
2020/12/06 11:32:24;;;;;;;5.47;4.97;;;5.00;95.30;;;;;;5015887;28;20037;-79
2020/12/06 11:34:50;;;;;;;4.68;4.28;;;4.90;90.90;;;;;;5016380;28;20029;-77
2020/12/06 11:37:16;;;;;;;5.13;4.70;;;4.90;91.30;;;;;;5016892;28;20029;-77
2020/12/06 11:39:42;;;;;;;4.47;4.00;;;5.20;99.90;;;;;;5016614;28;20041;-80
2020/12/06 11:42:08;;;;;;;5.05;4.28;;;4.90;91.30;;;;;;5016601;28;20021;-79
2020/12/06 11:44:34;;;;;;;4.50;4.10;;;4.60;97.20;;;;;;5032263;28;20035;-81
2020/12/06 11:47:00;;;;;;;4.88;4.38;;;4.80;91.20;;;;;;5015976;28;20026;-79
2020/12/06 11:49:26;;;;;;;5.05;4.45;;;4.90;91.30;;;;;;5032906;28;20356;-82
2020/12/06 11:51:55;;;;;;;12.35;8.02;;;4.90;99.90;;;;;;5016533;28;20017;-81
2020/12/06 11:54:21;;;;;;;5.60;5.00;;;5.00;96.10;;;;;;5033953;28;20035;-81
2020/12/06 11:56:49;;;;;;;7.05;6.07;;;5.10;91.40;;;;;;5018596;28;20021;-81
2020/12/06 11:59:15;;;;;;;5.20;4.70;;;4.90;91.30;;;;;;5017180;28;20527;-83
2020/12/06 12:01:41;;;;;;;5.93;5.30;;;5.60;91.30;;;;;;5016881;28;20024;-77
2020/12/06 12:04:06;;;;;;;6.22;5.30;;;4.90;91.30;;;;;;5032190;28;20108;-79
2020/12/06 12:06:32;;;;;;;9.18;5.85;;;5.20;91.40;;;;;;5032611;28;20774;-85
2020/12/06 12:08:58;;;;;;;7.30;5.90;;;5.00;99.90;;;;;;5016042;28;20025;-80
2020/12/06 12:11:23;;;;;;;6.68;6.00;;;5.10;95.90;;;;;;5015965;28;20037;-80
2020/12/06 12:13:49;;;;;;;20.08;14.85;;;5.80;91.40;;;;;;5016246;28;20023;-82
2020/12/06 12:16:14;;;;;;;21.08;12.98;;;5.00;91.70;;;;;;5032359;28;20024;-79
2020/12/06 12:18:40;;;;;;;8.05;6.40;;;5.00;99.90;;;;;;5033717;28;20083;-82
2020/12/06 12:21:06;;;;;;;6.70;6.03;;;5.10;91.20;;;;;;5015494;28;20051;-80
2020/12/06 12:23:31;;;;;;;7.15;6.45;;;5.10;94.70;;;;;;5032583;28;20380;-80
2020/12/06 12:25:57;;;;;;;7.10;6.40;;;5.00;90.70;;;;;;5015303;28;20030;-83
2020/12/06 12:28:23;;;;;;;6.88;6.18;;;5.10;90.80;;;;;;5015780;28;20467;-83
2020/12/06 12:30:48;;;;;;;7.10;6.35;;;5.00;99.00;;;;;;5015888;28;20029;-82
2020/12/06 12:33:14;;;;;;;7.57;6.38;;;5.00;97.30;;;;;;4999360;28;20022;-81
2020/12/06 12:35:40;;;;;;;6.32;5.72;;;5.10;91.20;;;;;;5015597;28;20494;-84
2020/12/06 12:38:06;;;;;;;7.03;6.32;;;5.20;90.90;;;;;;4999047;28;20030;-83
2020/12/06 12:40:31;;;;;;;7.07;6.38;;;5.00;91.00;;;;;;4999296;28;20018;-82
2020/12/06 12:42:57;;;;;;;6.90;5.90;;;5.10;96.30;;;;;;5015406;28;20021;-82
2020/12/06 12:45:23;;;;;;;8.57;6.57;;;5.00;90.60;;;;;;4998194;28;20111;-79
2020/12/06 12:47:52;;;;;;;7.70;6.88;;;5.10;93.70;;;;;;5030963;28;20021;-87
2020/12/06 12:50:19;;;;;;;22.80;20.70;;;5.30;93.10;;;;;;5000396;28;20071;-88
2020/12/06 12:52:47;;;;;;;11.00;9.98;;;5.30;91.00;;;;;;5032023;28;20436;-83
2020/12/06 12:55:15;;;;;;;8.88;7.85;;;5.30;90.80;;;;;;5032258;28;20704;-86
2020/12/06 12:57:41;;;;;;;7.25;6.45;;;;;;;;;;5000056;28;20079;-89